Nuevotorreblanquilla — EADA — position and weather

sailwx.info

Track history (hours):
 
Tides and Currents Weather Stations Pressure Air Temp Water Temp Dewpoint Dewpoint Depression Visibility Wind Speed Wind Dir Waves Ship Positions

Nuevotorreblanquilla

Last reported at 2018-Jun-02 13:25 UTC. Time now 2018-Jun-19 01:18 UTC.
Position N 45°50' W 004°08'.
Warning: this ship's position is 16 days out of date.

Length 24 m; draft 3 m.

Type: Fishing. MMSI: 224066980.

Date/timePositionNaut miles runAvg speedWind from/ knotsBaromVisibWave heightAir tempDewpointWater temp
2018-Jun-02 13:25N 45°50' W 004°08'  
2018-May-28 11:18N 43°55' W 005°07'0 0.8
2018-May-28 11:00N 43°54' W 005°06'0 0.1
2018-May-28 10:30N 43°54' W 005°06'22 1.1
2018-May-27 14:07N 43°50' W 005°36'1 4.8
2018-May-27 13:49N 43°50' W 005°34'3 6.3
2018-May-27 13:21N 43°50' W 005°30'2 4.4
2018-May-27 12:50N 43°51' W 005°27'2 5.1
2018-May-27 12:27N 43°52' W 005°24'2 4.8
2018-May-27 12:00N 43°52' W 005°21'5 2.3
2018-May-27 09:41N 43°50' W 005°14'1 3.4
2018-May-27 09:28N 43°50' W 005°13'3 4.7
2018-May-27 08:54N 43°49' W 005°10'4 5.1
2018-May-27 08:05N 43°47' W 005°04'2 5.1
2018-May-27 07:39N 43°46' W 005°02'3 6.1
2018-May-27 07:12N 43°45' W 004°58'2 5.6
2018-May-27 06:55N 43°45' W 004°56'3 6.3
2018-May-27 06:30N 43°44' W 004°53'15 1.1
2018-May-26 16:57N 43°49' W 005°12'6 8.4
2018-May-26 16:16N 43°52' W 005°19'13 8.3
2018-May-26 14:44N 43°53' W 005°37'8 7.8
2018-May-26 13:40N 43°51' W 005°48'4 8.3
2018-May-26 13:14N 43°49' W 005°52'2 8.2
2018-May-26 13:00N 43°47' W 005°54'4 7.7
2018-May-26 12:30N 43°46' W 005°59'3 3.9
2018-May-26 11:41N 43°45' W 006°03'1 4.4
2018-May-26 11:27N 43°45' W 006°05'3 0.2
2018-May-25 17:52N 43°45' W 006°00'2 5.1
2018-May-25 17:28N 43°46' W 006°03'  
Track history (hours):
 
Tides and Currents Weather Stations Pressure Air Temp Water Temp Dewpoint Dewpoint Depression Visibility Wind Speed Wind Dir Waves Ship Positions

Nuevotorreblanquilla

Last reported at 2018-Jun-02 13:25 UTC. Time now 2018-Jun-19 01:18 UTC.
Position N 45°50' W 004°08'.
Warning: this ship's position is 16 days out of date.

Length 24 m; draft 3 m.

Type: Fishing. MMSI: 224066980.

Date/timePositionNaut miles runAvg speedWind from/ knotsBaromVisibWave heightAir tempDewpointWater temp
2018-Jun-02 13:25N 45°50' W 004°08'  
2018-May-28 11:18N 43°55' W 005°07'0 0.8
2018-May-28 11:00N 43°54' W 005°06'0 0.1
2018-May-28 10:30N 43°54' W 005°06'22 1.1
2018-May-27 14:07N 43°50' W 005°36'1 4.8
2018-May-27 13:49N 43°50' W 005°34'3 6.3
2018-May-27 13:21N 43°50' W 005°30'2 4.4
2018-May-27 12:50N 43°51' W 005°27'2 5.1
2018-May-27 12:27N 43°52' W 005°24'2 4.8
2018-May-27 12:00N 43°52' W 005°21'5 2.3
2018-May-27 09:41N 43°50' W 005°14'1 3.4
2018-May-27 09:28N 43°50' W 005°13'3 4.7
2018-May-27 08:54N 43°49' W 005°10'4 5.1
2018-May-27 08:05N 43°47' W 005°04'2 5.1
2018-May-27 07:39N 43°46' W 005°02'3 6.1
2018-May-27 07:12N 43°45' W 004°58'2 5.6
2018-May-27 06:55N 43°45' W 004°56'3 6.3
2018-May-27 06:30N 43°44' W 004°53'15 1.1
2018-May-26 16:57N 43°49' W 005°12'6 8.4
2018-May-26 16:16N 43°52' W 005°19'13 8.3
2018-May-26 14:44N 43°53' W 005°37'8 7.8
2018-May-26 13:40N 43°51' W 005°48'4 8.3
2018-May-26 13:14N 43°49' W 005°52'2 8.2
2018-May-26 13:00N 43°47' W 005°54'4 7.7
2018-May-26 12:30N 43°46' W 005°59'3 3.9
2018-May-26 11:41N 43°45' W 006°03'1 4.4
2018-May-26 11:27N 43°45' W 006°05'3 0.2
2018-May-25 17:52N 43°45' W 006°00'2 5.1
2018-May-25 17:28N 43°46' W 006°03'  

Dump ship's entire track history